createdAt,value
2022-11-07T00:00:50.238Z,82.92
2022-11-07T00:03:20.005Z,82.58
2022-11-07T00:05:49.584Z,82.69
2022-11-07T00:08:19.264Z,82.20
2022-11-07T00:10:48.769Z,82.11
2022-11-07T00:13:20.057Z,82.03
2022-11-07T00:15:50.020Z,82.19
2022-11-07T00:18:19.486Z,81.96
2022-11-07T00:20:48.944Z,81.87
2022-11-07T00:23:18.443Z,81.78
2022-11-07T00:25:48.017Z,81.39
2022-11-07T00:28:17.644Z,81.54
2022-11-07T00:30:48.500Z,81.15
2022-11-07T00:33:17.980Z,81.54
2022-11-07T00:35:47.863Z,81.32
2022-11-07T00:38:17.349Z,80.90
2022-11-07T00:40:54.681Z,81.10
2022-11-07T00:43:24.529Z,80.99
2022-11-07T00:45:55.597Z,80.94
2022-11-07T00:48:25.127Z,80.48
2022-11-07T00:50:54.681Z,80.71
2022-11-07T00:53:24.331Z,80.20
2022-11-07T00:55:55.658Z,80.36
2022-11-07T00:58:25.198Z,80.69
2022-11-07T01:00:56.086Z,80.18
2022-11-07T01:03:43.479Z,80.65
2022-11-07T01:06:13.064Z,80.00
2022-11-07T01:08:42.864Z,80.26
2022-11-07T01:11:12.313Z,80.02
2022-11-07T01:13:42.568Z,79.90
2022-11-07T01:16:14.170Z,80.02
2022-11-07T01:18:44.117Z,79.73
2022-11-07T01:21:16.438Z,79.87
2022-11-07T01:23:46.345Z,79.79
2022-11-07T01:26:16.285Z,79.93
2022-11-07T01:28:45.865Z,79.67
2022-11-07T01:31:17.390Z,79.37
2022-11-07T01:33:46.972Z,79.67
2022-11-07T01:36:17.503Z,79.36
2022-11-07T01:38:49.002Z,79.37
2022-11-07T01:41:23.094Z,79.11
2022-11-07T01:43:55.092Z,78.93
2022-11-07T01:46:27.893Z,79.11
2022-11-07T01:49:00.594Z,79.44
2022-11-07T01:51:32.537Z,78.84
2022-11-07T01:54:02.565Z,79.24
2022-11-07T01:56:34.529Z,78.98
2022-11-07T01:59:04.337Z,78.78
2022-11-07T02:01:35.408Z,78.75
2022-11-07T02:04:05.606Z,78.88
2022-11-07T02:06:38.763Z,78.74
2022-11-07T02:09:08.302Z,78.53
2022-11-07T02:11:38.325Z,78.81
2022-11-07T02:14:08.269Z,78.84
2022-11-07T02:16:39.776Z,78.83
2022-11-07T02:19:11.877Z,78.36
2022-11-07T02:21:45.261Z,78.70
2022-11-07T02:24:18.821Z,78.70
2022-11-07T02:26:48.620Z,78.19
2022-11-07T02:29:18.165Z,78.38
2022-11-07T02:31:47.697Z,78.26
2022-11-07T02:34:17.197Z,78.26
2022-11-07T02:36:47.245Z,78.40
2022-11-07T02:39:18.110Z,78.55
2022-11-07T02:41:48.618Z,77.92
2022-11-07T02:44:18.371Z,78.02
2022-11-07T02:46:48.052Z,78.09
2022-11-07T02:49:17.473Z,77.42
2022-11-07T02:51:47.101Z,77.94
2022-11-07T02:54:17.987Z,77.35
2022-11-07T02:56:47.513Z,77.37
2022-11-07T02:59:17.046Z,77.54
2022-11-07T03:01:46.982Z,77.56
2022-11-07T03:04:16.653Z,77.57
2022-11-07T03:06:46.077Z,77.46
2022-11-07T03:09:15.605Z,77.33
2022-11-07T03:11:47.148Z,77.00
2022-11-07T03:14:17.217Z,77.08
2022-11-07T03:16:47.288Z,77.23
2022-11-07T03:19:17.013Z,76.92
2022-11-07T03:21:46.569Z,77.05
2022-11-07T03:24:16.046Z,76.37
2022-11-07T03:26:46.960Z,76.51
2022-11-07T03:29:16.547Z,76.22
2022-11-07T03:31:46.164Z,76.03
2022-11-07T03:34:15.611Z,76.37
2022-11-07T03:36:45.152Z,75.83
2022-11-07T03:39:14.645Z,76.04
2022-11-07T03:41:44.182Z,76.08
2022-11-07T03:44:15.048Z,75.83
2022-11-07T03:46:44.630Z,75.70
2022-11-07T03:49:14.173Z,75.26
2022-11-07T03:51:43.692Z,75.19
2022-11-07T03:54:13.192Z,75.03
2022-11-07T03:56:42.742Z,74.51
2022-11-07T03:59:12.280Z,74.16
2022-11-07T04:01:44.457Z,73.98
2022-11-07T04:04:14.409Z,73.97
2022-11-07T04:06:43.928Z,74.47
2022-11-07T04:09:13.472Z,74.27
2022-11-07T04:12:00.584Z,74.17
2022-11-07T04:14:47.867Z,73.77
2022-11-07T04:17:22.097Z,74.43
2022-11-07T04:19:52.515Z,74.63
2022-11-07T04:22:22.032Z,74.41
2022-11-07T04:24:51.548Z,74.88
2022-11-07T04:27:39.010Z,74.94
2022-11-07T04:30:20.084Z,74.54
2022-11-07T04:32:52.010Z,74.63
2022-11-07T04:35:22.306Z,74.43
2022-11-07T04:37:51.930Z,74.38
2022-11-07T04:40:21.839Z,74.52
2022-11-07T04:42:51.596Z,74.29
2022-11-07T04:45:21.067Z,74.50
2022-11-07T04:47:52.144Z,74.29
2022-11-07T04:50:21.902Z,74.48
2022-11-07T04:52:51.499Z,74.57
2022-11-07T04:55:22.165Z,74.15
2022-11-07T04:57:51.692Z,74.42
2022-11-07T05:00:21.682Z,74.63
2022-11-07T05:02:52.554Z,74.73
2022-11-07T05:05:22.175Z,74.98
2022-11-07T05:07:51.640Z,74.89
2022-11-07T05:10:22.341Z,75.15
2022-11-07T05:12:53.274Z,75.55
2022-11-07T05:15:23.316Z,75.46
2022-11-07T05:17:54.301Z,75.52
2022-11-07T05:20:27.670Z,75.42
2022-11-07T05:23:17.763Z,75.37
2022-11-07T05:25:48.994Z,75.60
2022-11-07T05:28:25.664Z,75.44
2022-11-07T05:31:00.484Z,75.53
2022-11-07T05:33:31.307Z,75.59
2022-11-07T05:36:09.560Z,76.11
2022-11-07T05:38:40.807Z,75.72
2022-11-07T05:41:10.529Z,75.84
2022-11-07T05:43:40.242Z,76.03
2022-11-07T05:46:11.269Z,75.92
2022-11-07T05:48:42.323Z,76.26
2022-11-07T05:51:12.105Z,76.20
2022-11-07T05:53:41.790Z,76.30
2022-11-07T05:56:11.828Z,76.03
2022-11-07T05:58:51.280Z,76.25
2022-11-07T06:01:20.864Z,75.98
2022-11-07T06:03:51.716Z,76.07
2022-11-07T06:06:21.243Z,76.10
2022-11-07T06:08:53.154Z,76.33
2022-11-07T06:11:22.855Z,75.72
2022-11-07T06:13:54.386Z,76.12
2022-11-07T06:16:23.965Z,76.07
2022-11-07T06:18:54.976Z,75.54
2022-11-07T06:21:24.584Z,75.77
2022-11-07T06:23:54.212Z,75.65
2022-11-07T06:26:23.757Z,75.54
2022-11-07T06:28:53.374Z,75.22
2022-11-07T06:31:22.944Z,75.08
2022-11-07T06:33:52.680Z,75.10
2022-11-07T06:36:23.532Z,74.45
2022-11-07T06:38:53.640Z,74.37
2022-11-07T06:41:23.196Z,73.77
2022-11-07T06:43:52.818Z,73.58
2022-11-07T06:46:23.316Z,73.08
2022-11-07T06:48:52.815Z,72.95
2022-11-07T06:51:23.868Z,72.69
2022-11-07T06:53:54.309Z,72.20
2022-11-07T06:56:23.926Z,71.70
2022-11-07T06:58:53.442Z,71.56
2022-11-07T07:01:23.004Z,71.48
2022-11-07T07:03:53.198Z,70.99
2022-11-07T07:06:24.474Z,70.84
2022-11-07T07:08:55.622Z,70.58
2022-11-07T07:11:25.170Z,69.40
2022-11-07T07:14:01.819Z,69.25
2022-11-07T07:16:32.323Z,68.82
2022-11-07T07:19:02.019Z,68.70
2022-11-07T07:21:34.309Z,68.86
2022-11-07T07:24:03.892Z,68.04
2022-11-07T07:26:33.755Z,67.59
2022-11-07T07:29:03.223Z,66.92
2022-11-07T07:31:32.955Z,66.99
2022-11-07T07:34:02.600Z,65.94
2022-11-07T07:36:33.924Z,65.50
2022-11-07T07:39:03.719Z,65.75
2022-11-07T07:41:39.012Z,65.38
2022-11-07T07:44:09.737Z,65.29
2022-11-07T07:46:49.268Z,64.80
2022-11-07T07:49:18.852Z,64.42
2022-11-07T07:51:49.719Z,63.89
2022-11-07T07:54:19.257Z,63.12
2022-11-07T07:56:48.809Z,63.09
2022-11-07T07:59:18.470Z,62.62
2022-11-07T08:01:53.564Z,62.23
2022-11-07T08:04:26.245Z,60.86
2022-11-07T08:06:57.122Z,60.70
2022-11-07T08:09:26.809Z,60.76
2022-11-07T08:11:56.965Z,60.89
2022-11-07T08:14:26.982Z,61.14
2022-11-07T08:16:57.646Z,60.92
2022-11-07T08:19:27.445Z,61.13
2022-11-07T08:21:58.477Z,60.80
2022-11-07T08:24:28.039Z,60.90
2022-11-07T08:26:57.686Z,61.47
2022-11-07T08:29:27.395Z,60.96
2022-11-07T08:31:56.952Z,61.18
2022-11-07T08:34:26.668Z,61.36
2022-11-07T08:36:56.232Z,61.26
2022-11-07T08:39:27.174Z,60.57
2022-11-07T08:41:56.772Z,61.33
2022-11-07T08:44:26.395Z,60.97
2022-11-07T08:46:55.904Z,61.19
2022-11-07T08:49:25.446Z,60.98
2022-11-07T08:51:54.973Z,61.04
2022-11-07T08:54:25.817Z,60.98
2022-11-07T08:56:56.797Z,60.73
2022-11-07T08:59:26.362Z,60.63
2022-11-07T09:02:39.105Z,61.12
2022-11-07T09:04:47.277Z,61.14
2022-11-07T09:07:16.953Z,61.65
2022-11-07T09:09:46.942Z,61.20
2022-11-07T09:12:18.555Z,61.14
2022-11-07T09:14:48.693Z,61.19
2022-11-07T09:17:19.107Z,61.42
2022-11-07T09:19:48.656Z,61.16
2022-11-07T09:22:18.490Z,60.67
2022-11-07T09:24:48.318Z,60.65
2022-11-07T09:27:19.352Z,60.97
2022-11-07T09:29:48.946Z,60.78
2022-11-07T09:32:43.296Z,60.78
2022-11-07T09:35:08.852Z,60.89
2022-11-07T09:37:38.885Z,60.52
2022-11-07T09:40:21.305Z,60.29
2022-11-07T09:42:57.233Z,60.05
2022-11-07T09:45:26.908Z,59.74
2022-11-07T09:47:59.017Z,60.27
2022-11-07T09:50:30.768Z,60.77
2022-11-07T09:53:02.666Z,60.09
2022-11-07T09:55:33.498Z,59.90
2022-11-07T09:58:06.273Z,60.34
2022-11-07T10:00:36.003Z,59.36
2022-11-07T10:03:05.734Z,59.72
2022-11-07T10:05:40.470Z,59.97
2022-11-07T10:08:13.143Z,59.84
2022-11-07T10:10:45.740Z,59.96
2022-11-07T10:13:27.766Z,59.83
2022-11-07T10:16:04.549Z,59.61
2022-11-07T10:18:43.203Z,59.66
2022-11-07T10:24:26.147Z,59.41
2022-11-07T10:26:57.203Z,59.79
2022-11-07T10:29:30.718Z,60.62
2022-11-07T10:32:10.878Z,59.73
2022-11-07T10:34:44.222Z,59.60
2022-11-07T10:37:14.240Z,59.66
2022-11-07T10:39:43.925Z,59.52
2022-11-07T10:42:18.096Z,59.99
2022-11-07T10:44:49.931Z,59.95
2022-11-07T10:47:20.697Z,59.60
2022-11-07T10:50:00.094Z,59.58
2022-11-07T10:52:30.414Z,59.34
2022-11-07T10:55:06.835Z,59.45
2022-11-07T10:57:36.807Z,59.83
2022-11-07T11:00:21.745Z,59.73
2022-11-07T11:02:51.892Z,59.89
2022-11-07T11:05:23.819Z,59.71
2022-11-07T11:07:55.350Z,59.52
2022-11-07T11:10:26.182Z,59.01
2022-11-07T11:12:57.856Z,59.23
2022-11-07T11:15:34.485Z,59.66
2022-11-07T11:18:06.884Z,58.66
2022-11-07T11:20:38.271Z,59.12
2022-11-07T11:23:09.213Z,59.43
2022-11-07T11:25:46.400Z,59.97
2022-11-07T11:28:21.378Z,60.33
2022-11-07T11:30:56.080Z,59.92
2022-11-07T11:33:28.150Z,58.74
2022-11-07T11:35:59.957Z,59.34
2022-11-07T11:38:30.856Z,59.33
2022-11-07T11:41:09.361Z,58.68
2022-11-07T11:43:44.990Z,58.59
2022-11-07T11:46:21.624Z,59.08
2022-11-07T11:48:53.870Z,59.65
2022-11-07T11:51:37.800Z,59.70
2022-11-07T11:54:09.730Z,59.22
2022-11-07T11:56:44.558Z,59.30
2022-11-07T11:59:26.847Z,58.95
2022-11-07T12:02:03.827Z,59.31
2022-11-07T12:04:39.581Z,59.80
2022-11-07T12:07:15.597Z,59.20
2022-11-07T12:09:47.983Z,58.92
2022-11-07T12:12:24.375Z,59.13
2022-11-07T12:15:08.348Z,59.18
2022-11-07T12:17:42.622Z,59.31
2022-11-07T12:20:18.093Z,59.01
2022-11-07T12:23:05.526Z,59.14
2022-11-07T12:25:38.777Z,59.64
2022-11-07T12:28:25.166Z,59.58
2022-11-07T12:30:59.651Z,59.34
2022-11-07T12:33:34.920Z,59.35
2022-11-07T12:36:11.905Z,59.15
2022-11-07T12:38:59.977Z,59.03
2022-11-07T12:41:34.801Z,59.47
2022-11-07T12:44:11.329Z,59.70
2022-11-07T12:46:47.126Z,59.90
2022-11-07T12:49:33.392Z,59.99
2022-11-07T12:52:10.530Z,59.66
2022-11-07T12:54:48.036Z,59.26
2022-11-07T12:57:20.175Z,59.20
2022-11-07T12:59:52.716Z,59.24
2022-11-07T13:02:30.462Z,59.23
2022-11-07T13:05:09.657Z,59.97
2022-11-07T13:07:42.480Z,59.78
2022-11-07T13:10:16.153Z,59.74
2022-11-07T13:12:54.019Z,59.75
2022-11-07T13:15:24.583Z,59.00
2022-11-07T13:17:54.508Z,59.33
2022-11-07T13:20:27.775Z,59.21
2022-11-07T13:22:58.354Z,59.50
2022-11-07T13:25:29.809Z,59.65
2022-11-07T13:28:04.338Z,59.82
2022-11-07T13:30:36.408Z,60.08
2022-11-07T13:33:07.112Z,60.08
2022-11-07T13:35:38.982Z,59.42
2022-11-07T13:38:12.323Z,59.68
2022-11-07T13:40:45.898Z,60.02
2022-11-07T13:43:19.034Z,60.08
2022-11-07T13:45:50.706Z,60.21
2022-11-07T13:48:22.719Z,60.24
2022-11-07T13:50:59.072Z,59.90
2022-11-07T13:53:32.355Z,60.41
2022-11-07T13:56:04.463Z,59.85
2022-11-07T13:58:36.380Z,60.10
2022-11-07T14:01:10.302Z,59.86
2022-11-07T14:03:39.991Z,59.92
2022-11-07T14:06:13.619Z,60.27
2022-11-07T14:08:46.064Z,60.49
2022-11-07T14:11:17.773Z,60.57
2022-11-07T14:13:48.852Z,60.72
2022-11-07T14:16:21.100Z,60.71
2022-11-07T14:18:52.409Z,60.83
2022-11-07T14:21:24.209Z,60.80
2022-11-07T14:23:53.863Z,60.69
2022-11-07T14:26:25.958Z,61.22
2022-11-07T14:28:56.976Z,61.12
2022-11-07T14:31:28.125Z,60.96
2022-11-07T14:33:59.707Z,61.02
2022-11-07T14:36:31.428Z,61.17
2022-11-07T14:39:02.785Z,61.40
2022-11-07T14:41:32.442Z,61.21
2022-11-07T14:44:04.845Z,61.62
2022-11-07T14:46:34.886Z,61.24
2022-11-07T14:49:04.805Z,61.56
2022-11-07T14:51:36.554Z,61.38
2022-11-07T14:54:07.593Z,61.77
2022-11-07T14:56:39.760Z,61.79
2022-11-07T14:59:10.308Z,61.92
2022-11-07T15:01:40.332Z,62.13
2022-11-07T15:04:17.122Z,62.03
2022-11-07T15:06:48.409Z,62.22
2022-11-07T15:09:18.336Z,62.50
2022-11-07T15:11:56.982Z,62.18
2022-11-07T15:14:30.853Z,62.58
2022-11-07T15:17:04.214Z,62.80
2022-11-07T15:19:35.658Z,62.96
2022-11-07T15:22:07.473Z,62.57
2022-11-07T15:24:39.108Z,62.54
2022-11-07T15:27:19.869Z,62.67
2022-11-07T15:29:53.720Z,62.89
2022-11-07T15:32:24.505Z,62.95
2022-11-07T15:35:12.082Z,62.89
2022-11-07T15:37:53.978Z,63.52
2022-11-07T15:40:23.863Z,63.51
2022-11-07T15:42:56.025Z,63.36
2022-11-07T15:45:25.784Z,63.64
2022-11-07T15:47:55.406Z,64.27
2022-11-07T15:50:26.498Z,63.96
2022-11-07T15:52:57.451Z,64.02
2022-11-07T15:55:27.132Z,64.75
2022-11-07T15:57:56.746Z,64.82
2022-11-07T16:00:26.907Z,64.98
2022-11-07T16:02:58.523Z,64.58
2022-11-07T16:05:28.593Z,65.22
2022-11-07T16:08:02.437Z,64.75
2022-11-07T16:10:32.293Z,65.52
2022-11-07T16:13:05.607Z,65.72
2022-11-07T16:15:35.674Z,65.35
2022-11-07T16:18:05.809Z,65.40
2022-11-07T16:20:35.493Z,65.95
2022-11-07T16:23:06.738Z,65.98
2022-11-07T16:25:37.455Z,66.01
2022-11-07T16:28:08.069Z,66.22
2022-11-07T16:30:37.627Z,66.36
2022-11-07T16:33:07.413Z,66.00
2022-11-07T16:35:37.033Z,65.84
2022-11-07T16:38:12.028Z,65.94
2022-11-07T16:40:41.583Z,66.10
2022-11-07T16:43:11.196Z,66.61
2022-11-07T16:45:46.169Z,66.62
2022-11-07T16:48:23.721Z,67.00
2022-11-07T16:50:54.214Z,67.03
2022-11-07T16:53:25.985Z,66.95
2022-11-07T16:55:56.246Z,67.45
2022-11-07T16:58:27.147Z,67.57
2022-11-07T17:00:58.050Z,66.98
2022-11-07T17:03:27.710Z,67.85
2022-11-07T17:05:59.115Z,67.60
2022-11-07T17:08:33.772Z,67.50
2022-11-07T17:11:03.835Z,68.37
2022-11-07T17:13:39.031Z,67.67
2022-11-07T17:16:13.032Z,67.48
2022-11-07T17:18:42.889Z,67.55
2022-11-07T17:21:20.846Z,67.29
2022-11-07T17:23:52.043Z,67.69
2022-11-07T17:26:22.962Z,67.45
2022-11-07T17:28:52.943Z,67.01
2022-11-07T17:31:26.030Z,67.36
2022-11-07T17:33:56.807Z,67.57
2022-11-07T17:36:35.350Z,67.60
2022-11-07T17:39:11.652Z,67.80
2022-11-07T17:41:41.875Z,68.42
2022-11-07T17:44:11.875Z,68.61
2022-11-07T17:46:42.655Z,68.50
2022-11-07T17:49:14.091Z,68.45
2022-11-07T17:51:43.861Z,68.87
2022-11-07T17:54:15.814Z,68.74
2022-11-07T17:56:45.488Z,68.87
2022-11-07T17:59:16.170Z,69.11
2022-11-07T18:01:45.910Z,69.22
2022-11-07T18:04:15.955Z,69.29
2022-11-07T18:06:45.540Z,68.88
2022-11-07T18:09:16.790Z,69.12
2022-11-07T18:11:46.397Z,69.16
2022-11-07T18:14:16.315Z,68.97
2022-11-07T18:16:45.946Z,69.11
2022-11-07T18:19:17.537Z,69.47
2022-11-07T18:21:47.177Z,69.54
2022-11-07T18:24:18.516Z,69.70
2022-11-07T18:26:50.131Z,70.05
2022-11-07T18:29:19.980Z,69.92
2022-11-07T18:31:49.886Z,70.16
2022-11-07T18:34:20.545Z,69.98
2022-11-07T18:36:50.143Z,70.62
2022-11-07T18:39:22.704Z,70.56
2022-11-07T18:41:54.030Z,70.68
2022-11-07T18:44:23.796Z,70.45
2022-11-07T18:46:53.330Z,70.37
2022-11-07T18:49:24.469Z,70.30
2022-11-07T18:51:54.019Z,70.46
2022-11-07T18:54:26.270Z,70.83
2022-11-07T18:56:56.197Z,70.85
2022-11-07T18:59:25.689Z,70.92
2022-11-07T19:01:55.426Z,70.85
2022-11-07T19:04:25.255Z,70.63
2022-11-07T19:06:57.899Z,70.49
2022-11-07T19:09:29.970Z,70.06
2022-11-07T19:12:01.255Z,69.07
2022-11-07T19:14:31.929Z,68.83
2022-11-07T19:17:01.850Z,68.81
2022-11-07T19:19:32.194Z,69.10
2022-11-07T19:22:01.852Z,68.70
2022-11-07T19:24:32.826Z,68.89
2022-11-07T19:27:02.546Z,69.36
2022-11-07T19:29:32.360Z,68.95
2022-11-07T19:32:01.973Z,69.22
2022-11-07T19:34:31.793Z,69.64
2022-11-07T19:37:01.285Z,69.54
2022-11-07T19:39:36.540Z,69.38
2022-11-07T19:42:06.298Z,69.00
2022-11-07T19:44:36.433Z,69.42
2022-11-07T19:47:06.158Z,69.56
2022-11-07T19:49:35.739Z,69.76
2022-11-07T19:52:05.594Z,69.80
2022-11-07T19:54:36.547Z,69.83
2022-11-07T19:57:06.265Z,70.21
2022-11-07T19:59:35.769Z,69.91
2022-11-07T20:02:30.995Z,70.15
2022-11-07T20:04:56.201Z,69.79
2022-11-07T20:07:25.649Z,70.74
2022-11-07T20:09:58.872Z,70.64
2022-11-07T20:12:29.418Z,70.58
2022-11-07T20:15:00.078Z,71.31
2022-11-07T20:17:30.289Z,72.00
2022-11-07T20:20:03.924Z,71.43
2022-11-07T20:22:36.728Z,72.26
2022-11-07T20:25:08.194Z,72.09
2022-11-07T20:27:37.838Z,72.37
2022-11-07T20:30:08.073Z,71.62
2022-11-07T20:32:37.913Z,73.00
2022-11-07T20:35:08.165Z,72.77
2022-11-07T20:37:37.887Z,72.89
2022-11-07T20:40:10.313Z,72.83
2022-11-07T20:42:40.118Z,72.77
2022-11-07T20:45:13.263Z,72.87
2022-11-07T20:47:42.951Z,72.94
2022-11-07T20:50:12.623Z,73.23
2022-11-07T20:52:42.329Z,73.53
2022-11-07T20:55:13.504Z,73.73
2022-11-07T20:57:44.057Z,73.88
2022-11-07T21:00:14.308Z,73.27
2022-11-07T21:02:44.030Z,73.61
2022-11-07T21:05:18.333Z,73.79
2022-11-07T21:07:48.344Z,73.79
2022-11-07T21:10:19.461Z,73.60
2022-11-07T21:12:49.461Z,73.95
2022-11-07T21:15:19.721Z,73.27
2022-11-07T21:17:49.202Z,73.53
2022-11-07T21:20:19.118Z,73.37
2022-11-07T21:22:49.476Z,73.24
2022-11-07T21:25:20.462Z,73.61
2022-11-07T21:27:50.218Z,73.53
2022-11-07T21:30:19.779Z,73.16
2022-11-07T21:32:49.281Z,73.26
2022-11-07T21:35:18.882Z,73.22
2022-11-07T21:37:48.416Z,73.63
2022-11-07T21:40:18.058Z,73.68
2022-11-07T21:42:48.943Z,73.30
2022-11-07T21:45:18.528Z,73.23
2022-11-07T21:47:48.254Z,72.99
2022-11-07T21:50:42.803Z,73.17
2022-11-07T21:53:08.712Z,73.03
2022-11-07T21:55:38.299Z,73.00
2022-11-07T21:58:09.201Z,73.16
2022-11-07T22:00:40.194Z,73.00
2022-11-07T22:03:09.731Z,72.58
2022-11-07T22:05:39.975Z,72.15
2022-11-07T22:08:09.605Z,72.58
2022-11-07T22:10:39.137Z,73.83
2022-11-07T22:13:10.596Z,74.25
2022-11-07T22:15:40.969Z,74.16
2022-11-07T22:18:10.974Z,73.44
2022-11-07T22:20:40.847Z,73.50
2022-11-07T22:23:10.482Z,73.38
2022-11-07T22:25:40.013Z,73.21
2022-11-07T22:28:11.105Z,73.29
2022-11-07T22:30:40.699Z,73.31
2022-11-07T22:33:12.022Z,73.27
2022-11-07T22:35:41.552Z,73.56
2022-11-07T22:38:11.393Z,73.67
2022-11-07T22:40:44.237Z,74.05
2022-11-07T22:43:15.574Z,73.57
2022-11-07T22:45:45.430Z,73.64
2022-11-07T22:48:15.116Z,73.21
2022-11-07T22:50:44.729Z,73.01
2022-11-07T22:53:14.653Z,72.13
2022-11-07T22:55:44.389Z,72.08
2022-11-07T22:58:15.962Z,72.11
2022-11-07T23:00:45.801Z,72.49
2022-11-07T23:03:15.352Z,72.71
2022-11-07T23:05:44.904Z,73.18
2022-11-07T23:08:33.866Z,72.88
2022-11-07T23:14:00.497Z,73.15
2022-11-07T23:16:32.917Z,72.95
2022-11-07T23:19:03.978Z,73.31
2022-11-07T23:21:33.757Z,73.00
2022-11-07T23:24:03.579Z,72.95
2022-11-07T23:26:34.702Z,72.85
2022-11-07T23:29:10.751Z,72.67
2022-11-07T23:31:41.096Z,72.56
2022-11-07T23:34:11.308Z,72.94
2022-11-07T23:36:43.945Z,72.54
2022-11-07T23:39:14.849Z,72.96
2022-11-07T23:41:44.688Z,73.30
2022-11-07T23:44:16.212Z,73.92
2022-11-07T23:47:03.485Z,73.39
2022-11-07T23:49:49.545Z,73.18
2022-11-07T23:52:19.370Z,72.64
2022-11-07T23:55:06.529Z,72.55
2022-11-07T23:57:56.508Z,72.57
